createdAt,value
2019-03-08T00:00:48.139Z,9.09
2019-03-08T00:01:48.117Z,9.03
2019-03-08T00:02:48.107Z,9.12
2019-03-08T00:03:48.094Z,9.19
2019-03-08T00:04:48.148Z,9.05
2019-03-08T00:05:48.071Z,9.14
2019-03-08T00:06:48.065Z,9.19
2019-03-08T00:07:48.055Z,9.32
2019-03-08T00:08:48.044Z,9.30
2019-03-08T00:09:48.040Z,9.30
2019-03-08T00:10:48.070Z,9.24
2019-03-08T00:11:48.011Z,9.21
2019-03-08T00:12:48.004Z,9.27
2019-03-08T00:13:47.989Z,9.34
2019-03-08T00:14:47.989Z,9.27
2019-03-08T00:15:47.967Z,9.23
2019-03-08T00:16:48.013Z,9.21
2019-03-08T00:17:47.946Z,9.19
2019-03-08T00:18:47.941Z,9.20
2019-03-08T00:19:47.932Z,9.08
2019-03-08T00:20:47.905Z,9.12
2019-03-08T00:21:47.902Z,9.05
2019-03-08T00:22:47.955Z,9.05
2019-03-08T00:23:47.879Z,9.04
2019-03-08T00:24:47.867Z,9.19
2019-03-08T00:25:47.857Z,9.26
2019-03-08T00:26:47.853Z,9.19
2019-03-08T00:27:47.835Z,9.23
2019-03-08T00:28:47.879Z,9.19
2019-03-08T00:29:47.818Z,9.08
2019-03-08T00:30:47.807Z,9.09
2019-03-08T00:31:47.800Z,9.09
2019-03-08T00:32:47.781Z,9.04
2019-03-08T00:33:47.786Z,9.09
2019-03-08T00:34:47.822Z,8.98
2019-03-08T00:35:47.761Z,9.01
2019-03-08T00:36:47.749Z,9.00
2019-03-08T00:37:47.729Z,9.04
2019-03-08T00:38:47.721Z,9.05
2019-03-08T00:39:47.709Z,9.03
2019-03-08T00:40:47.751Z,9.11
2019-03-08T00:41:47.683Z,9.04
2019-03-08T00:42:47.678Z,9.08
2019-03-08T00:43:47.663Z,9.01
2019-03-08T00:44:47.650Z,8.85
2019-03-08T00:45:47.641Z,8.85
2019-03-08T00:46:47.676Z,8.98
2019-03-08T00:47:47.618Z,8.87
2019-03-08T00:48:47.619Z,8.87
2019-03-08T00:49:47.593Z,8.76
2019-03-08T00:50:47.586Z,8.74
2019-03-08T00:51:47.577Z,8.77
2019-03-08T00:52:47.618Z,8.71
2019-03-08T00:53:47.554Z,8.85
2019-03-08T00:54:47.546Z,8.79
2019-03-08T00:55:47.538Z,8.82
2019-03-08T00:56:47.527Z,8.92
2019-03-08T00:57:47.516Z,8.98
2019-03-08T00:58:47.565Z,8.87
2019-03-08T00:59:47.491Z,8.89
2019-03-08T01:00:47.478Z,8.90
2019-03-08T01:01:47.496Z,9.00
2019-03-08T01:02:47.453Z,8.94
2019-03-08T01:03:47.450Z,9.04
2019-03-08T01:04:47.481Z,9.05
2019-03-08T01:05:47.436Z,9.00
2019-03-08T01:06:47.423Z,8.87
2019-03-08T01:07:47.413Z,8.87
2019-03-08T01:08:47.392Z,8.82
2019-03-08T01:09:47.382Z,8.74
2019-03-08T01:10:47.414Z,8.74
2019-03-08T01:11:47.360Z,8.83
2019-03-08T01:12:47.350Z,8.80
2019-03-08T01:13:47.350Z,8.87
2019-03-08T01:14:47.331Z,9.08
2019-03-08T01:15:47.318Z,9.05
2019-03-08T01:16:47.363Z,9.17
2019-03-08T01:17:47.298Z,9.04
2019-03-08T01:18:47.287Z,9.03
2019-03-08T01:19:47.275Z,9.14
2019-03-08T01:20:47.261Z,9.17
2019-03-08T01:21:47.277Z,9.19
2019-03-08T01:22:47.310Z,9.23
2019-03-08T01:23:47.256Z,9.20
2019-03-08T01:24:47.220Z,9.21
2019-03-08T01:25:47.209Z,9.21
2019-03-08T01:26:47.216Z,9.17
2019-03-08T01:27:47.204Z,9.23
2019-03-08T01:28:47.239Z,9.19
2019-03-08T01:29:47.164Z,9.27
2019-03-08T01:30:47.158Z,9.23
2019-03-08T01:31:47.149Z,9.27
2019-03-08T01:32:47.148Z,9.29
2019-03-08T01:33:47.137Z,9.17
2019-03-08T01:34:47.175Z,9.17
2019-03-08T01:35:47.100Z,9.24
2019-03-08T01:36:47.088Z,9.12
2019-03-08T01:37:47.094Z,9.09
2019-03-08T01:38:47.072Z,9.20
2019-03-08T01:39:47.065Z,9.16
2019-03-08T01:40:47.104Z,9.16
2019-03-08T01:41:47.037Z,9.24
2019-03-08T01:42:47.041Z,9.19
2019-03-08T01:43:47.021Z,9.16
2019-03-08T01:44:47.007Z,9.03
2019-03-08T01:45:47.017Z,9.05
2019-03-08T01:46:47.043Z,9.23
2019-03-08T01:47:46.984Z,9.20
2019-03-08T01:48:46.973Z,9.23
2019-03-08T01:49:46.951Z,9.21
2019-03-08T01:50:46.974Z,9.23
2019-03-08T01:51:46.968Z,9.34
2019-03-08T01:52:47.682Z,9.29
2019-03-08T01:53:46.906Z,9.34
2019-03-08T01:54:46.905Z,9.19
2019-03-08T01:55:46.891Z,9.26
2019-03-08T01:56:46.884Z,9.27
2019-03-08T01:57:46.870Z,9.30
2019-03-08T01:58:46.913Z,9.32
2019-03-08T01:59:46.843Z,9.30
2019-03-08T02:00:46.832Z,9.34
2019-03-08T02:01:46.823Z,9.23
2019-03-08T02:02:46.814Z,9.19
2019-03-08T02:03:46.795Z,9.23
2019-03-08T02:04:46.856Z,9.23
2019-03-08T02:05:46.778Z,9.21
2019-03-08T02:06:46.779Z,9.24
2019-03-08T02:07:46.757Z,9.20
2019-03-08T02:08:46.746Z,9.24
2019-03-08T02:09:46.734Z,9.21
2019-03-08T02:10:46.769Z,9.23
2019-03-08T02:11:46.716Z,9.14
2019-03-08T02:12:46.705Z,9.01
2019-03-08T02:13:46.708Z,8.86
2019-03-08T02:14:46.683Z,8.72
2019-03-08T02:15:46.667Z,8.72
2019-03-08T02:16:46.727Z,8.65
2019-03-08T02:17:46.660Z,8.62
2019-03-08T02:18:46.635Z,8.61
2019-03-08T02:19:46.632Z,8.46
2019-03-08T02:20:46.610Z,8.60
2019-03-08T02:21:46.600Z,8.46
2019-03-08T02:22:46.651Z,8.54
2019-03-08T02:23:46.582Z,8.58
2019-03-08T02:24:46.568Z,8.57
2019-03-08T02:25:46.561Z,8.64
2019-03-08T02:26:46.571Z,8.57
2019-03-08T02:27:46.544Z,8.62
2019-03-08T02:28:46.584Z,8.58
2019-03-08T02:29:46.520Z,8.62
2019-03-08T02:30:46.507Z,8.58
2019-03-08T02:31:46.504Z,8.62
2019-03-08T02:32:46.500Z,8.68
2019-03-08T02:33:46.496Z,8.54
2019-03-08T02:34:46.517Z,8.61
2019-03-08T02:35:46.451Z,8.67
2019-03-08T02:36:46.444Z,8.71
2019-03-08T02:37:46.432Z,8.69
2019-03-08T02:38:46.416Z,8.69
2019-03-08T02:39:46.410Z,8.69
2019-03-08T02:40:46.448Z,8.69
2019-03-08T02:41:46.384Z,8.76
2019-03-08T02:42:46.375Z,8.74
2019-03-08T02:43:46.362Z,8.74
2019-03-08T02:44:46.352Z,8.72
2019-03-08T02:45:46.337Z,8.79
2019-03-08T02:46:46.400Z,8.72
2019-03-08T02:47:46.320Z,8.72
2019-03-08T02:48:46.307Z,8.79
2019-03-08T02:49:46.304Z,8.68
2019-03-08T02:50:46.286Z,8.65
2019-03-08T02:51:46.283Z,8.57
2019-03-08T02:52:46.307Z,8.58
2019-03-08T02:53:46.255Z,8.60
2019-03-08T02:54:46.248Z,8.57
2019-03-08T02:55:46.232Z,8.60
2019-03-08T02:56:46.225Z,8.58
2019-03-08T02:57:46.220Z,8.65
2019-03-08T02:58:46.252Z,8.52
2019-03-08T02:59:46.190Z,8.53
2019-03-08T03:00:46.199Z,8.61
2019-03-08T03:01:46.171Z,8.57
2019-03-08T03:02:46.165Z,8.57
2019-03-08T03:03:46.148Z,8.60
2019-03-08T03:04:46.190Z,8.58
2019-03-08T03:05:46.148Z,8.53
2019-03-08T03:06:46.116Z,8.61
2019-03-08T03:07:46.104Z,8.61
2019-03-08T03:08:46.102Z,8.67
2019-03-08T03:09:46.081Z,8.58
2019-03-08T03:10:46.121Z,8.64
2019-03-08T03:11:46.061Z,8.62
2019-03-08T03:12:46.042Z,8.68
2019-03-08T03:13:46.038Z,8.71
2019-03-08T03:14:46.040Z,8.68
2019-03-08T03:15:46.013Z,8.67
2019-03-08T03:16:46.055Z,8.61
2019-03-08T03:17:45.994Z,8.57
2019-03-08T03:18:45.986Z,8.58
2019-03-08T03:19:45.981Z,8.58
2019-03-08T03:20:45.965Z,8.71
2019-03-08T03:21:45.949Z,8.68
2019-03-08T03:22:45.997Z,8.67
2019-03-08T03:23:45.939Z,8.69
2019-03-08T03:24:45.927Z,8.58
2019-03-08T03:25:45.913Z,8.60
2019-03-08T03:26:45.914Z,8.62
2019-03-08T03:27:45.885Z,8.62
2019-03-08T03:28:45.923Z,8.57
2019-03-08T03:29:45.875Z,8.58
2019-03-08T03:30:45.862Z,8.57
2019-03-08T03:31:45.840Z,8.54
2019-03-08T03:32:45.840Z,8.57
2019-03-08T03:33:45.838Z,8.49
2019-03-08T03:34:45.859Z,8.50
2019-03-08T03:35:45.800Z,8.40
2019-03-08T03:36:45.786Z,8.35
2019-03-08T03:37:45.779Z,8.40
2019-03-08T03:38:45.774Z,8.19
2019-03-08T03:39:45.755Z,8.19
2019-03-08T03:40:45.798Z,8.16
2019-03-08T03:41:45.734Z,8.19
2019-03-08T03:42:45.715Z,8.24
2019-03-08T03:43:45.717Z,8.13
2019-03-08T03:44:45.725Z,8.13
2019-03-08T03:45:45.688Z,8.10
2019-03-08T03:46:45.736Z,7.99
2019-03-08T03:47:45.673Z,7.95
2019-03-08T03:48:45.668Z,7.96
2019-03-08T03:49:45.650Z,7.89
2019-03-08T03:50:45.641Z,7.88
2019-03-08T03:51:45.624Z,7.88
2019-03-08T03:52:45.672Z,7.88
2019-03-08T03:53:45.596Z,7.75
2019-03-08T03:54:45.589Z,7.77
2019-03-08T03:55:45.578Z,7.82
2019-03-08T03:56:45.583Z,7.75
2019-03-08T03:57:45.556Z,7.74
2019-03-08T03:58:45.599Z,7.78
2019-03-08T03:59:45.535Z,7.73
2019-03-08T04:00:45.526Z,7.78
2019-03-08T04:01:45.536Z,7.91
2019-03-08T04:02:45.509Z,7.86
2019-03-08T04:03:45.506Z,7.77
2019-03-08T04:04:45.542Z,7.86
2019-03-08T04:05:45.471Z,7.80
2019-03-08T04:06:45.461Z,7.77
2019-03-08T04:07:45.471Z,7.80
2019-03-08T04:08:45.438Z,7.77
2019-03-08T04:09:45.430Z,7.75
2019-03-08T04:10:45.471Z,7.75
2019-03-08T04:11:45.419Z,7.77
2019-03-08T04:12:45.409Z,7.75
2019-03-08T04:13:45.390Z,7.73
2019-03-08T04:14:45.374Z,7.67
2019-03-08T04:15:45.371Z,7.59
2019-03-08T04:16:45.413Z,7.71
2019-03-08T04:17:45.358Z,7.68
2019-03-08T04:18:45.333Z,7.67
2019-03-08T04:19:45.349Z,7.68
2019-03-08T04:20:45.310Z,7.73
2019-03-08T04:21:45.332Z,7.67
2019-03-08T04:22:45.337Z,7.64
2019-03-08T04:23:45.345Z,7.68
2019-03-08T04:24:45.264Z,7.67
2019-03-08T04:25:45.264Z,7.68
2019-03-08T04:26:45.258Z,7.61
2019-03-08T04:27:45.267Z,7.64
2019-03-08T04:28:45.304Z,7.59
2019-03-08T04:29:45.213Z,7.61
2019-03-08T04:30:45.206Z,7.58
2019-03-08T04:31:45.197Z,7.54
2019-03-08T04:32:45.191Z,7.49
2019-03-08T04:33:45.171Z,7.49
2019-03-08T04:34:45.228Z,7.51
2019-03-08T04:35:45.147Z,7.45
2019-03-08T04:36:45.169Z,7.41
2019-03-08T04:37:45.124Z,7.48
2019-03-08T04:38:45.126Z,7.45
2019-03-08T04:39:45.109Z,7.37
2019-03-08T04:40:45.183Z,7.36
2019-03-08T04:41:45.091Z,7.40
2019-03-08T04:42:45.087Z,7.45
2019-03-08T04:43:45.071Z,7.40
2019-03-08T04:44:45.073Z,7.44
2019-03-08T04:45:45.037Z,7.45
2019-03-08T04:46:45.075Z,7.51
2019-03-08T04:47:45.033Z,7.52
2019-03-08T04:48:45.008Z,7.48
2019-03-08T04:49:45.022Z,7.49
2019-03-08T04:50:45.003Z,7.54
2019-03-08T04:51:44.988Z,7.51
2019-03-08T04:52:45.267Z,7.51
2019-03-08T04:53:44.963Z,7.52
2019-03-08T04:54:44.948Z,7.51
2019-03-08T04:55:44.937Z,7.56
2019-03-08T04:56:44.936Z,7.48
2019-03-08T04:57:44.944Z,7.52
2019-03-08T04:58:44.951Z,7.45
2019-03-08T04:59:44.911Z,7.44
2019-03-08T05:00:44.875Z,7.45
2019-03-08T05:01:44.881Z,7.44
2019-03-08T05:02:44.875Z,7.48
2019-03-08T05:03:44.855Z,7.40
2019-03-08T05:04:44.894Z,7.45
2019-03-08T05:05:44.828Z,7.45
2019-03-08T05:06:44.820Z,7.48
2019-03-08T05:07:44.854Z,7.48
2019-03-08T05:08:45.852Z,7.44
2019-03-08T05:09:44.772Z,7.40
2019-03-08T05:10:44.828Z,7.44
2019-03-08T05:11:44.766Z,7.47
2019-03-08T05:12:44.746Z,7.45
2019-03-08T05:13:44.746Z,7.44
2019-03-08T05:14:44.726Z,7.40
2019-03-08T05:15:44.720Z,7.44
2019-03-08T05:16:44.831Z,7.44
2019-03-08T05:17:44.690Z,7.47
2019-03-08T05:18:44.690Z,7.40
2019-03-08T05:19:44.698Z,7.48
2019-03-08T05:20:44.682Z,7.48
2019-03-08T05:21:44.649Z,7.48
2019-03-08T05:22:44.718Z,7.40
2019-03-08T05:23:44.629Z,7.49
2019-03-08T05:24:44.682Z,7.54
2019-03-08T05:25:44.622Z,7.45
2019-03-08T05:26:44.599Z,7.45
2019-03-08T05:27:44.583Z,7.47
2019-03-08T05:28:44.619Z,7.47
2019-03-08T05:29:44.581Z,7.49
2019-03-08T05:30:44.552Z,7.47
2019-03-08T05:31:44.548Z,7.49
2019-03-08T05:32:44.536Z,7.41
2019-03-08T05:33:44.557Z,7.49
2019-03-08T05:34:44.622Z,7.45
2019-03-08T05:35:44.507Z,7.34
2019-03-08T05:37:46.749Z,7.39
2019-03-08T05:38:45.390Z,7.33
2019-03-08T05:39:45.395Z,7.36
2019-03-08T05:40:45.323Z,7.39
2019-03-08T05:41:45.334Z,7.39
2019-03-08T05:42:45.309Z,7.48
2019-03-08T05:43:45.310Z,7.47
2019-03-08T05:44:45.286Z,7.45
2019-03-08T05:45:45.337Z,7.39
2019-03-08T05:46:45.266Z,7.45
2019-03-08T05:47:45.275Z,7.48
2019-03-08T05:48:45.241Z,7.49
2019-03-08T05:49:45.249Z,7.48
2019-03-08T05:50:45.218Z,7.48
2019-03-08T05:51:45.264Z,7.58
2019-03-08T05:52:45.205Z,7.51
2019-03-08T05:53:45.189Z,7.54
2019-03-08T05:54:45.183Z,7.56
2019-03-08T05:55:45.191Z,7.49
2019-03-08T05:56:45.158Z,7.48
2019-03-08T05:57:45.233Z,7.48
2019-03-08T05:58:45.132Z,7.47
2019-03-08T05:59:45.527Z,7.49
2019-03-08T06:00:45.106Z,7.47
2019-03-08T06:01:45.125Z,7.49
2019-03-08T06:02:45.095Z,7.49
2019-03-08T06:03:45.133Z,7.51
2019-03-08T06:04:45.075Z,7.58
2019-03-08T06:05:45.055Z,7.58
2019-03-08T06:06:45.044Z,7.59
2019-03-08T06:07:45.037Z,7.56
2019-03-08T06:08:45.027Z,7.59
2019-03-08T06:09:45.071Z,7.59
2019-03-08T06:10:45.009Z,7.55
2019-03-08T06:11:45.024Z,7.52
2019-03-08T06:12:44.986Z,7.54
2019-03-08T06:13:44.973Z,7.59
2019-03-08T06:14:44.987Z,7.68
2019-03-08T06:15:45.005Z,7.61
2019-03-08T06:16:44.954Z,7.63
2019-03-08T06:17:44.937Z,7.68
2019-03-08T06:18:44.936Z,7.67
2019-03-08T06:19:44.902Z,7.68
2019-03-08T06:20:44.957Z,7.59
2019-03-08T06:21:44.941Z,7.56
2019-03-08T06:22:44.906Z,7.56
2019-03-08T06:23:44.864Z,7.58
2019-03-08T06:24:44.875Z,7.58
2019-03-08T06:25:44.842Z,7.59
2019-03-08T06:26:44.859Z,7.58
2019-03-08T06:27:44.873Z,7.56
2019-03-08T06:28:44.807Z,7.56
2019-03-08T06:29:44.798Z,7.54
2019-03-08T06:30:44.787Z,7.67
2019-03-08T06:31:44.779Z,7.64
2019-03-08T06:32:44.777Z,7.64
2019-03-08T06:33:44.820Z,7.64
2019-03-08T06:34:44.745Z,7.64
2019-03-08T06:35:44.755Z,7.68
2019-03-08T06:36:44.739Z,7.73
2019-03-08T06:37:44.738Z,7.67
2019-03-08T06:38:44.704Z,7.70
2019-03-08T06:39:44.765Z,7.64
2019-03-08T06:40:44.683Z,7.59
2019-03-08T06:41:44.700Z,7.68
2019-03-08T06:42:44.659Z,7.71
2019-03-08T06:43:44.671Z,7.75
2019-03-08T06:44:44.691Z,7.67
2019-03-08T06:45:44.711Z,7.75
2019-03-08T06:46:44.615Z,7.67
2019-03-08T06:47:44.614Z,7.68
2019-03-08T06:48:44.598Z,7.73
2019-03-08T06:49:44.586Z,7.68
2019-03-08T06:50:44.573Z,7.75
2019-03-08T06:51:44.628Z,7.77
2019-03-08T06:52:44.556Z,7.75
2019-03-08T06:53:44.563Z,7.75
2019-03-08T06:54:44.550Z,7.83
2019-03-08T06:55:44.533Z,7.80
2019-03-08T06:56:44.511Z,7.75
2019-03-08T06:57:44.573Z,7.88
2019-03-08T06:58:44.483Z,7.77
2019-03-08T06:59:44.479Z,7.78
2019-03-08T07:00:44.459Z,7.83
2019-03-08T07:01:44.455Z,7.78
2019-03-08T07:02:44.442Z,7.89
2019-03-08T07:03:44.485Z,7.88
2019-03-08T07:04:44.422Z,7.92
2019-03-08T07:05:44.414Z,7.88
2019-03-08T07:06:44.402Z,7.96
2019-03-08T07:07:44.399Z,7.83
2019-03-08T07:08:44.382Z,7.98
2019-03-08T07:09:44.421Z,7.99
2019-03-08T07:10:44.372Z,7.99
2019-03-08T07:11:44.360Z,8.11
2019-03-08T07:12:44.338Z,8.01
2019-03-08T07:13:44.324Z,8.13
2019-03-08T07:14:44.308Z,8.11
2019-03-08T07:15:44.347Z,8.17
2019-03-08T07:16:44.313Z,8.28
2019-03-08T07:17:44.280Z,8.17
2019-03-08T07:18:44.294Z,8.35
2019-03-08T07:19:44.260Z,8.46
2019-03-08T07:20:44.280Z,8.39
2019-03-08T07:21:44.288Z,8.44
2019-03-08T07:22:44.250Z,8.46
2019-03-08T07:23:44.217Z,8.39
2019-03-08T07:24:44.218Z,8.44
2019-03-08T07:25:51.192Z,8.44
2019-03-08T07:26:45.237Z,8.44
2019-03-08T07:27:44.180Z,8.43
2019-03-08T07:28:44.179Z,8.43
2019-03-08T07:29:44.146Z,8.42
2019-03-08T07:30:44.139Z,8.47
2019-03-08T07:31:44.133Z,8.49
2019-03-08T07:32:44.182Z,8.54
2019-03-08T07:33:52.701Z,8.49
2019-03-08T07:34:45.090Z,8.60
2019-03-08T07:35:44.077Z,8.47
2019-03-08T07:36:44.077Z,8.46
2019-03-08T07:37:44.058Z,8.46
2019-03-08T07:38:44.133Z,8.49
2019-03-08T07:39:44.033Z,8.46
2019-03-08T07:40:44.028Z,8.58
2019-03-08T07:41:44.017Z,8.34
2019-03-08T07:42:45.105Z,8.40
2019-03-08T07:43:44.007Z,8.43
2019-03-08T07:44:44.042Z,8.29
2019-03-08T07:45:44.366Z,8.47
2019-03-08T07:46:43.968Z,8.50
2019-03-08T07:47:43.949Z,8.46
2019-03-08T07:48:43.949Z,8.39
2019-03-08T07:49:43.930Z,8.47
2019-03-08T07:50:43.968Z,8.36
2019-03-08T07:51:43.913Z,8.40
2019-03-08T07:52:43.895Z,8.34
2019-03-08T07:53:43.887Z,8.31
2019-03-08T07:54:52.464Z,8.47
2019-03-08T07:55:46.424Z,8.44
2019-03-08T07:56:43.855Z,8.46
2019-03-08T07:57:43.846Z,8.57
2019-03-08T07:58:43.829Z,8.54
2019-03-08T07:59:53.188Z,8.71
2019-03-08T08:00:44.809Z,8.68
2019-03-08T08:01:43.855Z,8.69
2019-03-08T08:02:43.787Z,8.83
2019-03-08T08:03:43.786Z,8.90
2019-03-08T08:04:43.773Z,8.92
2019-03-08T08:05:43.761Z,8.89
2019-03-08T08:06:43.749Z,8.98
2019-03-08T08:07:43.904Z,9.04
2019-03-08T08:08:51.375Z,9.11
2019-03-08T08:09:44.713Z,8.94
2019-03-08T08:10:43.701Z,8.94
2019-03-08T08:11:43.690Z,8.85
2019-03-08T08:12:43.678Z,9.08
2019-03-08T08:13:43.724Z,9.01
2019-03-08T08:14:43.655Z,9.05
2019-03-08T08:15:45.454Z,9.32
2019-03-08T08:16:43.643Z,9.34
2019-03-08T08:17:43.630Z,9.30
2019-03-08T08:18:43.611Z,9.38
2019-03-08T08:19:43.649Z,9.47
2019-03-08T08:20:43.595Z,9.62
2019-03-08T08:21:43.582Z,9.75
2019-03-08T08:22:43.566Z,9.80
2019-03-08T08:23:43.556Z,9.84
2019-03-08T08:24:43.547Z,9.90
2019-03-08T08:25:43.588Z,9.92
2019-03-08T08:26:43.531Z,10.03
2019-03-08T08:27:43.518Z,10.25
2019-03-08T08:28:49.965Z,10.39
2019-03-08T08:29:44.501Z,10.47
2019-03-08T08:30:43.489Z,10.47
2019-03-08T08:31:43.537Z,10.66
2019-03-08T08:32:43.462Z,10.73
2019-03-08T08:33:43.456Z,10.90
2019-03-08T08:34:43.443Z,10.79
2019-03-08T08:35:43.438Z,10.77
2019-03-08T08:36:43.417Z,11.05
2019-03-08T08:37:43.459Z,11.21
2019-03-08T08:38:43.393Z,11.42
2019-03-08T08:39:43.384Z,11.35
2019-03-08T08:40:43.376Z,11.13
2019-03-08T08:41:43.367Z,10.88
2019-03-08T08:42:43.355Z,10.59
2019-03-08T08:43:43.400Z,10.46
2019-03-08T08:44:43.328Z,10.07
2019-03-08T08:45:43.319Z,9.88
2019-03-08T08:46:43.309Z,9.80
2019-03-08T08:47:43.296Z,9.84
2019-03-08T08:48:43.286Z,9.80
2019-03-08T08:49:43.325Z,9.82
2019-03-08T08:50:43.266Z,9.81
2019-03-08T08:51:43.254Z,9.90
2019-03-08T08:52:43.260Z,10.02
2019-03-08T08:53:43.238Z,9.99
2019-03-08T08:54:43.219Z,10.10
2019-03-08T08:55:43.789Z,10.23
2019-03-08T08:56:43.202Z,10.38
2019-03-08T08:57:43.199Z,10.11
2019-03-08T08:58:43.182Z,10.02
2019-03-08T08:59:43.186Z,9.96
2019-03-08T09:00:43.151Z,10.08
2019-03-08T09:01:43.189Z,10.11
2019-03-08T09:02:43.135Z,10.00
2019-03-08T09:03:43.119Z,10.02
2019-03-08T09:04:43.116Z,9.93
2019-03-08T09:05:43.100Z,9.93
2019-03-08T09:06:43.087Z,9.99
2019-03-08T09:07:43.136Z,9.85
2019-03-08T09:08:43.068Z,9.80
2019-03-08T09:09:43.056Z,9.75
2019-03-08T09:10:43.042Z,9.81
2019-03-08T09:11:48.423Z,9.80
2019-03-08T09:12:44.083Z,9.93
2019-03-08T09:13:43.011Z,9.77
2019-03-08T09:14:43.003Z,9.81
2019-03-08T09:15:42.988Z,9.92
2019-03-08T09:16:42.978Z,9.98
2019-03-08T09:17:42.965Z,9.82
2019-03-08T09:18:43.005Z,9.84
2019-03-08T09:19:42.944Z,9.72
2019-03-08T09:20:42.952Z,9.78
2019-03-08T09:21:42.920Z,9.98
2019-03-08T09:22:42.924Z,10.03
2019-03-08T09:23:42.895Z,10.11
2019-03-08T09:24:42.940Z,10.29
2019-03-08T09:25:42.871Z,10.54
2019-03-08T09:26:42.867Z,10.76
2019-03-08T09:27:42.849Z,10.76
2019-03-08T09:28:42.845Z,10.72
2019-03-08T09:29:42.833Z,11.06
2019-03-08T09:30:42.868Z,10.87
2019-03-08T09:31:42.808Z,11.18
2019-03-08T09:32:42.797Z,11.39
2019-03-08T09:33:42.788Z,11.70
2019-03-08T09:34:42.774Z,11.68
2019-03-08T09:35:42.766Z,11.63
2019-03-08T09:36:42.803Z,11.60
2019-03-08T09:37:42.752Z,11.67
2019-03-08T09:38:42.733Z,11.56
2019-03-08T09:39:42.726Z,11.35
2019-03-08T09:40:42.714Z,11.26
2019-03-08T09:41:42.718Z,11.26
2019-03-08T09:42:42.737Z,11.23
2019-03-08T09:43:42.676Z,11.41
2019-03-08T09:44:42.667Z,11.33
2019-03-08T09:45:42.660Z,11.53
2019-03-08T09:46:42.644Z,11.66
2019-03-08T09:47:42.637Z,11.59
2019-03-08T09:48:48.690Z,11.49
2019-03-08T09:49:43.616Z,11.24
2019-03-08T09:50:42.603Z,11.28
2019-03-08T09:51:42.592Z,11.61
2019-03-08T09:52:42.584Z,11.85
2019-03-08T09:53:42.564Z,11.57
2019-03-08T09:54:42.606Z,11.78
2019-03-08T09:55:42.545Z,11.94
2019-03-08T09:56:42.535Z,12.19
2019-03-08T09:57:42.522Z,12.36
2019-03-08T09:58:42.516Z,12.37
2019-03-08T09:59:42.501Z,12.52
2019-03-08T10:00:42.564Z,12.51
2019-03-08T10:01:42.481Z,12.69
2019-03-08T10:02:42.474Z,12.43
2019-03-08T10:03:46.272Z,12.28
2019-03-08T10:04:42.449Z,12.38
2019-03-08T10:05:42.439Z,12.26
2019-03-08T10:06:42.485Z,12.29
2019-03-08T10:07:42.414Z,12.53
2019-03-08T10:08:42.404Z,12.80
2019-03-08T10:09:42.391Z,12.77
2019-03-08T10:10:42.381Z,12.65
2019-03-08T10:11:42.375Z,12.69
2019-03-08T10:12:42.411Z,12.70
2019-03-08T10:13:42.353Z,12.31
2019-03-08T10:14:42.337Z,12.20
2019-03-08T10:15:42.329Z,11.59
2019-03-08T10:16:42.318Z,11.43
2019-03-08T10:17:42.307Z,11.33
2019-03-08T10:18:42.343Z,11.56
2019-03-08T10:19:42.289Z,11.76
2019-03-08T10:20:42.284Z,11.68
2019-03-08T10:21:42.264Z,11.75
2019-03-08T10:22:42.257Z,11.39
2019-03-08T10:23:42.241Z,11.33
2019-03-08T10:24:42.308Z,11.16
2019-03-08T10:25:42.225Z,11.03
2019-03-08T10:26:42.222Z,10.91
2019-03-08T10:27:42.200Z,10.92
2019-03-08T10:28:42.189Z,10.90
2019-03-08T10:29:42.177Z,11.02
2019-03-08T10:30:42.222Z,11.09
2019-03-08T10:31:42.158Z,11.08
2019-03-08T10:32:42.146Z,10.92
2019-03-08T10:33:46.569Z,11.00
2019-03-08T10:34:42.123Z,10.95
2019-03-08T10:35:42.113Z,11.23
2019-03-08T10:36:42.153Z,11.39
2019-03-08T10:37:42.089Z,11.57
2019-03-08T10:38:42.083Z,11.81
2019-03-08T10:39:42.073Z,11.43
2019-03-08T10:40:42.057Z,11.48
2019-03-08T10:41:42.041Z,11.38
2019-03-08T10:42:42.089Z,11.52
2019-03-08T10:43:42.025Z,11.49
2019-03-08T10:44:42.015Z,11.79
2019-03-08T10:45:42.002Z,11.57
2019-03-08T10:46:42.009Z,11.46
2019-03-08T10:47:42.605Z,11.66
2019-03-08T10:48:42.019Z,11.64
2019-03-08T10:49:41.960Z,11.61
2019-03-08T10:50:41.946Z,11.57
2019-03-08T10:51:41.938Z,11.45
2019-03-08T10:52:43.619Z,11.41
2019-03-08T10:53:43.365Z,11.39
2019-03-08T10:54:44.558Z,11.10
2019-03-08T10:55:43.195Z,11.30
2019-03-08T10:56:43.122Z,11.28
2019-03-08T10:57:42.320Z,11.30
2019-03-08T10:58:41.859Z,11.45
2019-03-08T10:59:41.865Z,11.60
2019-03-08T11:00:41.894Z,11.76
2019-03-08T11:01:41.827Z,11.78
2019-03-08T11:02:41.818Z,12.01
2019-03-08T11:03:41.806Z,11.94
2019-03-08T11:04:41.797Z,12.10
2019-03-08T11:05:41.778Z,12.28
2019-03-08T11:06:41.818Z,12.23
2019-03-08T11:07:41.772Z,12.18
2019-03-08T11:08:41.751Z,11.84
2019-03-08T11:09:41.744Z,11.70
2019-03-08T11:10:41.721Z,11.86
2019-03-08T11:11:41.714Z,12.03
2019-03-08T11:12:41.757Z,12.16
2019-03-08T11:13:43.442Z,12.08
2019-03-08T11:14:41.684Z,12.19
2019-03-08T11:15:41.679Z,11.98
2019-03-08T11:16:43.385Z,12.13
2019-03-08T11:17:50.347Z,12.15
2019-03-08T11:18:42.689Z,12.28
2019-03-08T11:19:41.632Z,12.22
2019-03-08T11:20:41.632Z,12.19
2019-03-08T11:21:41.608Z,12.43
2019-03-08T11:22:41.601Z,12.28
2019-03-08T11:23:41.599Z,12.34
2019-03-08T11:24:41.626Z,12.38
2019-03-08T11:25:41.560Z,12.18
2019-03-08T11:26:41.551Z,12.18
2019-03-08T11:27:41.550Z,12.10
2019-03-08T11:28:41.528Z,12.20
2019-03-08T11:29:41.522Z,11.86
2019-03-08T11:30:41.563Z,11.41
2019-03-08T11:31:41.522Z,11.42
2019-03-08T11:32:41.488Z,11.64
2019-03-08T11:33:41.472Z,11.76
2019-03-08T11:34:41.462Z,12.07
2019-03-08T11:35:41.450Z,12.38
2019-03-08T11:36:41.525Z,12.86
2019-03-08T11:38:48.462Z,12.63
2019-03-08T11:39:41.405Z,13.40
2019-03-08T11:40:41.396Z,13.95
2019-03-08T11:41:41.390Z,14.26
2019-03-08T11:42:41.453Z,15.19
2019-03-08T11:43:41.404Z,16.81
2019-03-08T11:44:41.353Z,17.55
2019-03-08T11:45:41.341Z,17.86
2019-03-08T11:46:41.398Z,18.20
2019-03-08T11:47:41.317Z,18.29
2019-03-08T11:48:41.410Z,18.72
2019-03-08T11:49:42.549Z,18.41
2019-03-08T11:50:41.337Z,18.26
2019-03-08T11:51:41.286Z,17.65
2019-03-08T11:52:41.289Z,17.81
2019-03-08T11:53:41.253Z,17.90
2019-03-08T11:54:41.343Z,17.71
2019-03-08T11:55:41.230Z,17.45
2019-03-08T11:56:41.235Z,15.15
2019-03-08T11:57:41.214Z,14.61
2019-03-08T11:58:41.199Z,13.79
2019-03-08T11:59:41.192Z,14.13
2019-03-08T12:00:41.398Z,14.16
2019-03-08T12:01:41.165Z,14.71
2019-03-08T12:02:41.158Z,15.99
2019-03-08T12:03:41.148Z,16.90
2019-03-08T12:04:41.132Z,15.78
2019-03-08T12:05:41.135Z,14.94
2019-03-08T12:06:41.162Z,14.23
2019-03-08T12:07:41.107Z,13.68
2019-03-08T12:08:41.122Z,14.52
2019-03-08T12:09:41.106Z,15.58
2019-03-08T12:10:41.064Z,15.93
2019-03-08T12:11:41.058Z,16.69
2019-03-08T12:12:41.109Z,15.78
2019-03-08T12:13:41.040Z,16.44
2019-03-08T12:14:41.031Z,16.27
2019-03-08T12:15:41.016Z,16.34
2019-03-08T12:16:41.015Z,16.97
2019-03-08T12:17:41.006Z,17.86
2019-03-08T12:18:41.064Z,17.79
2019-03-08T12:19:40.997Z,17.69
2019-03-08T12:20:40.958Z,16.97
2019-03-08T12:21:40.951Z,16.37
2019-03-08T12:22:40.953Z,16.16
2019-03-08T12:23:40.925Z,15.19
2019-03-08T12:24:40.971Z,15.37
2019-03-08T12:25:41.076Z,16.37
2019-03-08T12:26:40.896Z,17.35
2019-03-08T12:27:40.877Z,16.72
2019-03-08T12:28:40.872Z,16.87
2019-03-08T12:29:40.910Z,16.06
2019-03-08T12:30:40.932Z,16.02
2019-03-08T12:31:40.837Z,15.00
2019-03-08T12:32:40.868Z,14.74
2019-03-08T12:33:40.814Z,14.33
2019-03-08T12:34:40.887Z,14.24
2019-03-08T12:35:40.801Z,14.26
2019-03-08T12:36:40.840Z,14.36
2019-03-08T12:37:40.768Z,14.26
2019-03-08T12:38:40.776Z,14.67
2019-03-08T12:39:40.759Z,15.00
2019-03-08T12:40:40.737Z,14.86
2019-03-08T12:41:40.750Z,14.21
2019-03-08T12:42:40.804Z,14.26
2019-03-08T12:43:40.707Z,15.10
2019-03-08T12:44:40.711Z,15.47
2019-03-08T12:45:40.688Z,15.51
2019-03-08T12:46:40.690Z,15.07
2019-03-08T12:47:40.702Z,15.20
2019-03-08T12:48:40.727Z,14.93
2019-03-08T12:49:40.637Z,14.70
2019-03-08T12:50:40.638Z,15.07
2019-03-08T12:51:40.635Z,15.99
2019-03-08T12:52:40.621Z,16.34
2019-03-08T12:53:40.597Z,15.65
2019-03-08T12:54:40.724Z,15.47
2019-03-08T12:55:40.595Z,15.16
2019-03-08T12:56:40.566Z,13.94
2019-03-08T12:57:40.553Z,13.86
2019-03-08T12:58:40.541Z,14.13
2019-03-08T12:59:40.537Z,14.31
2019-03-08T13:00:40.600Z,14.51
2019-03-08T13:01:40.556Z,14.46
2019-03-08T13:02:40.557Z,14.11
2019-03-08T13:03:40.488Z,14.05
2019-03-08T13:04:40.478Z,14.09
2019-03-08T13:05:40.469Z,14.36
2019-03-08T13:06:40.512Z,14.19
2019-03-08T13:07:40.449Z,14.28
2019-03-08T13:08:40.427Z,14.34
2019-03-08T13:09:40.431Z,14.33
2019-03-08T13:10:40.436Z,13.88
2019-03-08T13:11:40.425Z,13.50